createdAt,value
2018-09-19T00:00:23.034Z,97862.03
2018-09-19T00:00:54.626Z,97865.81
2018-09-19T00:01:26.221Z,97862.39
2018-09-19T00:01:57.865Z,97860.23
2018-09-19T00:02:29.452Z,97867.48
2018-09-19T00:03:01.055Z,97867.50
2018-09-19T00:03:32.634Z,97868.34
2018-09-19T00:04:04.228Z,97870.52
2018-09-19T00:04:35.834Z,97858.61
2018-09-19T00:05:07.424Z,97868.00
2018-09-19T00:05:39.027Z,97867.92
2018-09-19T00:06:10.623Z,97867.48
2018-09-19T00:06:42.212Z,97866.64
2018-09-19T00:07:13.836Z,97866.63
2018-09-19T00:07:45.427Z,97865.39
2018-09-19T00:08:17.011Z,97868.34
2018-09-19T00:08:48.610Z,97873.29
2018-09-19T00:09:20.201Z,97872.63
2018-09-19T00:09:51.792Z,97875.34
2018-09-19T00:10:23.396Z,97869.81
2018-09-19T00:10:54.990Z,97873.03
2018-09-19T00:11:26.592Z,97877.50
2018-09-19T00:11:58.237Z,97872.33
2018-09-19T00:12:29.860Z,97872.38
2018-09-19T00:13:01.446Z,97871.47
2018-09-19T00:13:33.052Z,97871.02
2018-09-19T00:14:04.644Z,97867.97
2018-09-19T00:14:36.237Z,97839.54
2018-09-19T00:15:07.824Z,97868.80
2018-09-19T00:15:39.402Z,97870.06
2018-09-19T00:16:11.034Z,97873.56
2018-09-19T00:16:42.614Z,97867.97
2018-09-19T00:17:14.251Z,97876.48
2018-09-19T00:17:45.854Z,97855.81
2018-09-19T00:18:17.438Z,97876.30
2018-09-19T00:18:49.043Z,97877.50
2018-09-19T00:19:20.648Z,97874.93
2018-09-19T00:19:52.290Z,97875.77
2018-09-19T00:20:23.879Z,97871.02
2018-09-19T00:20:55.454Z,97885.97
2018-09-19T00:21:27.053Z,97871.64
2018-09-19T00:21:58.663Z,97876.83
2018-09-19T00:22:30.293Z,97876.91
2018-09-19T00:23:01.901Z,97871.78
2018-09-19T00:23:33.495Z,97872.64
2018-09-19T00:24:05.072Z,97878.28
2018-09-19T00:24:36.662Z,97872.38
2018-09-19T00:25:08.267Z,97880.14
2018-09-19T00:25:39.874Z,97875.90
2018-09-19T00:26:11.474Z,97877.19
2018-09-19T00:26:43.078Z,97878.54
2018-09-19T00:27:14.738Z,97878.54
2018-09-19T00:27:46.342Z,97887.41
2018-09-19T00:28:17.938Z,97877.53
2018-09-19T00:28:49.566Z,97888.56
2018-09-19T00:29:21.153Z,97881.42
2018-09-19T00:29:52.746Z,97884.88
2018-09-19T00:30:24.346Z,97884.88
2018-09-19T00:30:55.939Z,97883.22
2018-09-19T00:31:27.534Z,97881.95
2018-09-19T00:31:59.115Z,97875.04
2018-09-19T00:32:30.734Z,97876.67
2018-09-19T00:33:02.338Z,97874.94
2018-09-19T00:33:33.946Z,97874.52
2018-09-19T00:34:05.539Z,97875.80
2018-09-19T00:34:37.143Z,97872.80
2018-09-19T00:35:08.750Z,97873.61
2018-09-19T03:35:38.628Z,97928.20
2018-09-19T03:36:10.215Z,97927.36
2018-09-19T03:36:41.814Z,97929.98
2018-09-19T03:37:13.449Z,97934.69
2018-09-19T03:37:45.045Z,97931.20
2018-09-19T03:38:16.638Z,97930.75
2018-09-19T03:38:48.239Z,97931.25
2018-09-19T03:39:19.842Z,97899.38
2018-09-19T03:39:51.445Z,97931.69
2018-09-19T03:40:23.051Z,97925.80
2018-09-19T03:40:54.690Z,97930.51
2018-09-19T03:41:26.293Z,97926.28
2018-09-19T03:41:57.904Z,97924.11
2018-09-19T03:42:29.500Z,97926.28
2018-09-19T03:43:01.102Z,97924.93
2018-09-19T03:43:32.705Z,97923.59
2018-09-19T03:44:04.310Z,97926.16
2018-09-19T03:44:35.905Z,97923.59
2018-09-19T03:45:07.510Z,97921.94
2018-09-19T03:45:39.104Z,97918.98
2018-09-19T03:46:10.742Z,97925.38
2018-09-19T03:46:42.331Z,97922.40
2018-09-19T03:47:13.934Z,97916.05
2018-09-19T03:47:45.537Z,97916.42
2018-09-19T03:48:17.138Z,97918.19
2018-09-19T03:48:48.731Z,97917.34
2018-09-19T03:49:20.319Z,97918.76
2018-09-19T03:49:51.919Z,97915.78
2018-09-19T03:50:23.519Z,97925.08
2018-09-19T03:50:55.136Z,97917.49
2018-09-19T03:51:26.739Z,97919.22
2018-09-19T03:51:58.353Z,97920.55
2018-09-19T03:52:29.943Z,97919.70
2018-09-19T03:53:01.550Z,97929.02
2018-09-19T03:53:33.158Z,97919.13
2018-09-19T03:54:04.766Z,97920.75
2018-09-19T03:54:36.373Z,97922.38
2018-09-19T03:55:07.964Z,97930.91
2018-09-19T03:55:39.606Z,97924.53
2018-09-19T03:56:11.230Z,97930.08
2018-09-19T03:56:42.833Z,97931.41
2018-09-19T03:57:14.420Z,97930.58
2018-09-19T03:57:45.994Z,97932.28
2018-09-19T03:58:17.624Z,97934.46
2018-09-19T03:58:49.220Z,97939.16
2018-09-19T03:59:20.822Z,97932.43
2018-09-19T03:59:52.432Z,97941.02
2018-09-19T04:00:24.038Z,97941.09
2018-09-19T04:00:55.646Z,97939.81
2018-09-19T04:01:27.267Z,97938.11
2018-09-19T04:01:58.878Z,97938.89
2018-09-19T04:02:30.473Z,97938.45
2018-09-19T04:03:02.054Z,97938.41
2018-09-19T04:03:33.635Z,97940.53
2018-09-19T04:04:05.236Z,97937.90
2018-09-19T04:04:36.814Z,97938.75
2018-09-19T04:05:08.418Z,97929.78
2018-09-19T04:05:40.004Z,97932.41
2018-09-19T04:06:11.637Z,97970.30
2018-09-19T04:06:43.241Z,97931.49
2018-09-19T04:07:14.847Z,97934.46
2018-09-19T04:07:46.431Z,97934.91
2018-09-19T04:08:18.032Z,97934.03
2018-09-19T04:08:49.633Z,97931.05
2018-09-19T04:09:21.225Z,97932.19
2018-09-19T04:09:52.812Z,97939.80
2018-09-19T04:10:24.414Z,97940.21
2018-09-19T04:10:56.022Z,97940.23
2018-09-19T04:11:27.643Z,97938.95
2018-09-19T04:11:59.232Z,97940.30
2018-09-19T04:12:30.814Z,97931.42
2018-09-19T04:13:02.409Z,97934.41
2018-09-19T04:13:34.012Z,97933.13
2018-09-19T04:14:05.614Z,97935.63
2018-09-19T04:14:37.215Z,97937.81
2018-09-19T04:15:08.808Z,97944.28
2018-09-19T04:15:40.397Z,97948.55
2018-09-19T04:16:11.995Z,97942.67
2018-09-19T04:16:43.613Z,97944.84
2018-09-19T04:17:15.244Z,97947.91
2018-09-19T04:17:46.877Z,97951.39
2018-09-19T04:18:18.429Z,97943.75
2018-09-19T04:18:50.033Z,97945.09
2018-09-19T04:19:21.624Z,97948.48
2018-09-19T04:19:53.220Z,97947.20
2018-09-19T04:20:24.840Z,97952.34
2018-09-19T04:20:56.419Z,97954.53
2018-09-19T04:21:28.022Z,97950.78
2018-09-19T04:21:59.669Z,97949.98
2018-09-19T04:22:31.288Z,97944.81
2018-09-19T04:23:02.878Z,97948.64
2018-09-19T04:23:34.472Z,97945.67
2018-09-19T04:24:06.069Z,97940.63
2018-09-19T04:24:37.660Z,97942.78
2018-09-19T04:25:09.270Z,97938.52
2018-09-19T04:25:40.881Z,97945.35
2018-09-19T04:26:12.475Z,97932.63
2018-09-19T04:26:44.064Z,97939.02
2018-09-19T04:27:15.685Z,97940.22
2018-09-19T04:27:47.294Z,97949.56
2018-09-19T04:28:18.893Z,97940.98
2018-09-19T04:28:50.469Z,97951.56
2018-09-19T04:29:22.074Z,97950.27
2018-09-19T04:29:53.665Z,97952.42
2018-09-19T04:30:25.261Z,97953.77
2018-09-19T04:30:56.878Z,97951.71
2018-09-19T04:31:28.474Z,97958.98
2018-09-19T04:32:00.113Z,97952.17
2018-09-19T04:32:31.719Z,97947.05
2018-09-19T04:33:03.330Z,97953.00
2018-09-19T04:33:34.933Z,97952.97
2018-09-19T04:34:06.532Z,97949.06
2018-09-19T04:34:38.139Z,97956.73
2018-09-19T04:35:09.728Z,97956.23
2018-09-19T04:35:41.361Z,97953.76
2018-09-19T04:36:12.965Z,97957.68
2018-09-19T04:36:44.577Z,97953.33
2018-09-19T04:37:16.210Z,97960.23
2018-09-19T04:37:47.806Z,97957.69
2018-09-19T04:38:19.403Z,97954.30
2018-09-19T04:38:51.004Z,97951.40
2018-09-19T04:39:22.617Z,97954.45
2018-09-19T04:39:54.223Z,97950.19
2018-09-19T04:40:25.815Z,97952.30
2018-09-19T04:40:57.418Z,97954.29
2018-09-19T04:41:28.991Z,97954.73
2018-09-19T04:42:00.598Z,97957.69
2018-09-19T04:42:32.237Z,97962.30
2018-09-19T04:43:03.828Z,97953.70
2018-09-19T04:43:35.423Z,97954.53
2018-09-19T04:44:07.017Z,97962.12
2018-09-19T04:44:38.623Z,97960.34
2018-09-19T04:45:10.235Z,97957.02
2018-09-19T04:45:41.812Z,97961.28
2018-09-19T04:46:13.408Z,97962.16
2018-09-19T04:46:45.014Z,97960.93
2018-09-19T04:47:16.612Z,97959.23
2018-09-19T04:47:48.224Z,97962.80
2018-09-19T04:48:19.820Z,97960.98
2018-09-19T04:48:51.416Z,97965.64
2018-09-19T04:49:22.997Z,97966.91
2018-09-19T04:49:54.603Z,97965.19
2018-09-19T04:50:26.197Z,97967.81
2018-09-19T04:50:57.783Z,97965.27
2018-09-19T04:51:29.438Z,97966.98
2018-09-19T04:52:00.997Z,97961.92
2018-09-19T04:52:32.717Z,97964.90
2018-09-19T04:53:04.310Z,97963.94
2018-09-19T04:53:35.913Z,97969.39
2018-09-19T04:54:07.516Z,97965.13
2018-09-19T04:54:39.108Z,97964.75
2018-09-19T04:55:10.727Z,97961.28
2018-09-19T04:55:42.323Z,97970.72
2018-09-19T04:56:13.926Z,97965.63
2018-09-19T04:56:45.534Z,97969.94
2018-09-19T04:57:17.117Z,97967.41
2018-09-19T04:57:48.747Z,97971.61
2018-09-19T04:58:20.336Z,97970.30
2018-09-19T04:58:51.949Z,97971.22
2018-09-19T04:59:23.544Z,97970.30
2018-09-19T04:59:55.150Z,97976.72
2018-09-19T05:00:26.758Z,97976.35
2018-09-19T05:00:58.338Z,97974.27
2018-09-19T05:01:29.922Z,97969.59
2018-09-19T05:02:01.512Z,97972.02
2018-09-19T05:02:33.122Z,97973.65
2018-09-19T05:03:04.749Z,97974.06
2018-09-19T05:03:36.361Z,97973.28
2018-09-19T05:04:07.959Z,97975.41
2018-09-19T05:04:39.559Z,97983.08
2018-09-19T05:05:11.151Z,97978.84
2018-09-19T05:05:42.776Z,97971.75
2018-09-19T05:06:14.380Z,97975.59
2018-09-19T05:06:45.962Z,97976.88
2018-09-19T05:07:17.634Z,97977.03
2018-09-19T05:07:49.228Z,97973.98
2018-09-19T05:08:20.834Z,97972.20
2018-09-19T05:08:52.423Z,97976.00
2018-09-19T05:09:24.034Z,97981.45
2018-09-19T05:09:55.623Z,97978.00
2018-09-19T05:10:27.217Z,97980.41
2018-09-19T05:10:58.808Z,97977.70
2018-09-19T05:11:30.486Z,97987.86
2018-09-19T05:12:02.068Z,97991.24
2018-09-19T05:12:33.665Z,97979.32
2018-09-19T05:13:05.279Z,97986.14
2018-09-19T05:13:36.883Z,97986.56
2018-09-19T05:14:08.486Z,97986.16
2018-09-19T05:14:40.094Z,97962.36
2018-09-19T05:15:11.698Z,97995.02
2018-09-19T05:15:43.303Z,98001.42
2018-09-19T05:16:14.906Z,97998.92
2018-09-19T05:16:46.490Z,98004.14
2018-09-19T05:17:18.092Z,97999.56
2018-09-19T05:17:49.700Z,98012.37
2018-09-19T05:18:21.315Z,98010.30
2018-09-19T05:18:52.913Z,98012.03
2018-09-19T05:19:24.513Z,98015.56
2018-09-19T05:19:56.125Z,98008.26
2018-09-19T05:20:27.731Z,98012.09
2018-09-19T05:20:59.328Z,98004.83
2018-09-19T05:21:30.908Z,98004.70
2018-09-19T05:22:02.514Z,98003.84
2018-09-19T05:22:34.104Z,98007.18
2018-09-19T05:23:05.729Z,98003.78
2018-09-19T05:23:37.337Z,98003.71
2018-09-19T05:24:08.946Z,98006.19
2018-09-19T05:24:40.550Z,98001.94
2018-09-19T05:25:12.155Z,98005.88
2018-09-19T05:25:43.749Z,98003.26
2018-09-19T05:26:15.336Z,98011.31
2018-09-19T05:26:46.931Z,98003.27
2018-09-19T05:27:18.538Z,98007.91
2018-09-19T05:27:50.142Z,97999.86
2018-09-19T05:28:21.819Z,98004.64
2018-09-19T05:28:53.413Z,98008.89
2018-09-19T05:29:24.994Z,98002.91
2018-09-19T05:29:56.595Z,98004.18
2018-09-19T05:30:28.201Z,98002.83
2018-09-19T05:30:59.779Z,97998.59
2018-09-19T05:31:31.419Z,97999.92
2018-09-19T05:32:02.980Z,98001.14
2018-09-19T05:32:34.567Z,98001.06
2018-09-19T05:33:06.197Z,98006.17
2018-09-19T05:33:37.794Z,97998.08
2018-09-19T05:34:09.387Z,98003.99
2018-09-19T05:34:41.011Z,98003.55
2018-09-19T05:35:12.612Z,98008.67
2018-09-19T05:35:44.216Z,98004.05
2018-09-19T05:36:15.823Z,98001.14
2018-09-19T05:36:47.442Z,97998.22
2018-09-19T05:37:19.024Z,98007.59
2018-09-19T05:37:50.612Z,98005.41
2018-09-19T05:38:22.189Z,98006.19
2018-09-19T05:38:53.781Z,98000.30
2018-09-19T05:39:25.382Z,98004.11
2018-09-19T05:39:56.966Z,98007.97
2018-09-19T05:40:28.553Z,98006.77
2018-09-19T05:41:00.144Z,98008.45
2018-09-19T05:41:31.731Z,98008.88
2018-09-19T05:42:03.338Z,98008.44
2018-09-19T05:42:34.922Z,98022.09
2018-09-19T05:43:06.508Z,98014.41
2018-09-19T05:43:38.101Z,98022.09
2018-09-19T05:44:09.696Z,98020.81
2018-09-19T05:44:41.320Z,98019.53
2018-09-19T05:45:12.924Z,98026.80
2018-09-19T05:45:44.512Z,98026.86
2018-09-19T05:46:16.147Z,98024.80
2018-09-19T05:46:47.732Z,98031.18
2018-09-19T05:47:19.323Z,98030.04
2018-09-19T05:47:50.926Z,98032.98
2018-09-19T05:48:22.558Z,98027.52
2018-09-19T05:48:54.161Z,98033.46
2018-09-19T05:49:25.765Z,98032.19
2018-09-19T05:49:57.354Z,98030.04
2018-09-19T05:50:28.957Z,98026.59
2018-09-19T05:51:00.563Z,98029.55
2018-09-19T05:51:32.179Z,98029.16
2018-09-19T05:52:03.790Z,98027.42
2018-09-19T05:52:35.370Z,98028.27
2018-09-19T05:53:06.961Z,98033.41
2018-09-19T05:53:38.589Z,98030.84
2018-09-19T05:54:10.193Z,98030.82
2018-09-19T05:54:41.871Z,98034.66
2018-09-19T05:55:13.394Z,98043.14
2018-09-19T05:55:44.984Z,98046.40
2018-09-19T05:56:16.591Z,98048.03
2018-09-19T05:56:48.174Z,98050.04
2018-09-19T05:57:19.763Z,98047.47
2018-09-19T05:57:51.366Z,98052.92
2018-09-19T05:58:22.997Z,98038.25
2018-09-19T05:58:54.598Z,98050.31
2018-09-19T05:59:26.188Z,98048.17
2018-09-19T05:59:57.781Z,98045.62
2018-09-19T06:00:29.362Z,98047.74
2018-09-19T06:01:00.976Z,98046.04
2018-09-19T06:01:32.576Z,98050.25
2018-09-19T06:02:04.182Z,98050.18
2018-09-19T06:02:35.810Z,98045.05
2018-09-19T06:03:07.407Z,98055.66
2018-09-19T06:03:39.034Z,98051.00
2018-09-19T06:04:10.619Z,98055.23
2018-09-19T06:04:42.224Z,98049.95
2018-09-19T06:05:13.883Z,98058.41
2018-09-19T06:05:45.476Z,98056.75
2018-09-19T06:06:17.064Z,98053.30
2018-09-19T06:06:48.656Z,98059.84
2018-09-19T06:07:20.244Z,98053.56
2018-09-19T06:07:51.833Z,98056.62
2018-09-19T06:08:23.453Z,98051.14
2018-09-19T06:08:55.058Z,98051.17
2018-09-19T06:09:26.653Z,98045.11
2018-09-19T06:09:58.230Z,98041.64
2018-09-19T06:10:29.839Z,98047.24
2018-09-19T06:11:01.436Z,98050.75
2018-09-19T06:11:33.010Z,98050.44
2018-09-19T06:12:04.617Z,98052.67
2018-09-19T06:12:36.221Z,98056.14
2018-09-19T06:13:07.822Z,98053.64
2018-09-19T06:13:39.446Z,98060.05
2018-09-19T06:14:11.045Z,98055.36
2018-09-19T06:14:42.652Z,98055.78
2018-09-19T06:15:14.258Z,98057.08
2018-09-19T06:15:45.866Z,98058.48
2018-09-19T06:16:17.463Z,98052.94
2018-09-19T06:16:49.044Z,98034.02
2018-09-19T06:17:20.632Z,98053.06
2018-09-19T06:17:52.247Z,98051.30
2018-09-19T06:18:23.970Z,98053.42
2018-09-19T06:18:55.596Z,98049.53
2018-09-19T06:19:27.190Z,98049.04
2018-09-19T06:19:58.781Z,98051.16
2018-09-19T06:20:30.368Z,98049.44
2018-09-19T06:21:01.950Z,98056.13
2018-09-19T06:21:33.557Z,98056.06
2018-09-19T06:22:05.168Z,98049.16
2018-09-19T06:22:36.769Z,98057.55
2018-09-19T06:23:08.356Z,98055.86
2018-09-19T06:23:39.943Z,98057.55
2018-09-19T06:24:11.565Z,98054.44
2018-09-19T06:24:43.169Z,98053.09
2018-09-19T06:25:14.830Z,98057.42
2018-09-19T06:25:46.424Z,98047.20
2018-09-19T06:26:18.030Z,98057.48
2018-09-19T06:26:49.658Z,98050.18
2018-09-19T06:27:21.247Z,98044.18
2018-09-19T06:27:52.854Z,98049.25
2018-09-19T06:28:24.448Z,98053.58
2018-09-19T06:28:56.079Z,98052.36
2018-09-19T06:29:27.690Z,98053.23
2018-09-19T06:29:59.285Z,98055.77
2018-09-19T06:30:30.876Z,98059.18
2018-09-19T06:31:02.468Z,98057.56
2018-09-19T06:31:34.063Z,98057.97
2018-09-19T06:32:05.654Z,98061.70
2018-09-19T06:32:37.244Z,98062.46
2018-09-19T06:33:08.896Z,98061.61
2018-09-19T06:33:40.455Z,98063.73
2018-09-19T06:34:12.068Z,98060.31
2018-09-19T06:34:43.655Z,98057.25
2018-09-19T06:35:15.245Z,98062.33
2018-09-19T06:35:46.833Z,98060.23
2018-09-19T06:36:18.419Z,98062.38
2018-09-19T06:36:50.053Z,98065.81
2018-09-19T06:37:21.651Z,98067.64
2018-09-19T06:37:53.235Z,98060.81
2018-09-19T06:38:24.826Z,98066.88
2018-09-19T06:38:56.445Z,98057.97
2018-09-19T06:39:28.079Z,98062.69
2018-09-19T06:39:59.730Z,98060.98
2018-09-19T06:40:31.374Z,98062.69
2018-09-19T06:41:03.008Z,98066.01
2018-09-19T06:41:34.534Z,98057.94
2018-09-19T06:42:06.115Z,98060.13
2018-09-19T06:42:37.827Z,98065.30
2018-09-19T06:43:09.421Z,98071.77
2018-09-19T06:43:41.043Z,98062.47
2018-09-19T06:44:12.670Z,98063.89
2018-09-19T06:44:44.250Z,98064.82
2018-09-19T06:45:15.834Z,98070.05
2018-09-19T06:45:47.453Z,98062.04
2018-09-19T06:46:19.041Z,98051.48
2018-09-19T06:46:50.678Z,98065.30
2018-09-19T06:47:22.274Z,98065.58
2018-09-19T06:47:53.868Z,98059.59
2018-09-19T06:48:25.461Z,98065.87
2018-09-19T06:48:57.067Z,98063.69
2018-09-19T06:49:28.688Z,98063.17
2018-09-19T06:50:00.290Z,98063.52
2018-09-19T06:50:31.887Z,98061.27
2018-09-19T06:51:03.488Z,98064.59
2018-09-19T06:51:35.123Z,98069.69
2018-09-19T06:52:06.793Z,98068.34
2018-09-19T06:52:38.331Z,98070.43
2018-09-19T06:53:09.923Z,98069.62
2018-09-19T06:53:41.512Z,98069.77
2018-09-19T06:54:13.161Z,98073.98
2018-09-19T06:54:44.791Z,98075.67
2018-09-19T06:55:16.399Z,98071.35
2018-09-19T06:55:47.994Z,98078.58
2018-09-19T06:56:19.605Z,98076.88
2018-09-19T06:56:51.201Z,98074.40
2018-09-19T06:57:22.884Z,98074.32
2018-09-19T06:57:54.466Z,98077.73
2018-09-19T06:58:26.050Z,98075.17
2018-09-19T06:58:57.643Z,98080.71
2018-09-19T06:59:29.249Z,98072.20
2018-09-19T07:00:00.854Z,98073.48
2018-09-19T07:00:32.448Z,98073.91
2018-09-19T07:01:04.052Z,98085.00
2018-09-19T07:01:35.645Z,98081.22
2018-09-19T07:02:07.252Z,98081.64
2018-09-19T07:02:38.834Z,98082.48
2018-09-19T07:03:10.438Z,98079.22
2018-09-19T07:03:42.045Z,98080.57
2018-09-19T07:04:13.654Z,98084.80
2018-09-19T07:04:45.283Z,98084.72
2018-09-19T07:05:16.883Z,98084.35
2018-09-19T07:05:48.551Z,98092.82
2018-09-19T07:06:20.110Z,98090.24
2018-09-19T07:06:51.715Z,98092.31
2018-09-19T07:07:23.329Z,98090.10
2018-09-19T07:07:54.921Z,98091.75
2018-09-19T07:08:26.524Z,98093.46
2018-09-19T07:08:58.133Z,98093.46
2018-09-19T07:09:29.750Z,98062.39
2018-09-19T07:10:01.345Z,98099.77
2018-09-19T07:10:32.972Z,98101.89
2018-09-19T07:11:04.555Z,98099.30
2018-09-19T07:11:36.165Z,98100.63
2018-09-19T07:12:07.748Z,98104.48
2018-09-19T07:12:39.344Z,98101.98
2018-09-19T07:13:10.946Z,98097.66
2018-09-19T07:13:42.550Z,98104.20
2018-09-19T07:14:14.126Z,98101.64
2018-09-19T07:14:45.726Z,98104.67
2018-09-19T07:15:17.387Z,98105.13
2018-09-19T07:15:48.982Z,98095.66
2018-09-19T07:16:20.588Z,98096.92
2018-09-19T07:16:52.184Z,98100.28
2018-09-19T07:17:23.765Z,98104.13
2018-09-19T07:17:55.346Z,98101.97
2018-09-19T07:18:26.950Z,98098.56
2018-09-19T07:18:58.624Z,98096.92
2018-09-19T07:19:30.214Z,98112.35
2018-09-19T07:20:01.825Z,98100.50
2018-09-19T07:20:33.434Z,98098.77
2018-09-19T07:21:05.037Z,98103.48
2018-09-19T07:21:36.644Z,98101.39
2018-09-19T07:22:08.236Z,98102.67
2018-09-19T07:22:39.816Z,98102.61
2018-09-19T07:23:11.418Z,98103.84
2018-09-19T07:23:43.063Z,98105.47
2018-09-19T07:24:14.641Z,98100.34
2018-09-19T07:24:46.223Z,98105.02
2018-09-19T07:25:17.886Z,98106.16
2018-09-19T07:25:49.467Z,98111.57
2018-09-19T07:26:21.078Z,98109.38
2018-09-19T07:26:52.676Z,98107.45
2018-09-19T07:27:24.284Z,98115.27
2018-09-19T07:27:55.887Z,98108.59
2018-09-19T07:28:27.476Z,98107.53
2018-09-19T07:28:59.117Z,98110.52
2018-09-19T07:29:30.708Z,98104.23
2018-09-19T07:30:02.324Z,98102.18
2018-09-19T07:30:33.933Z,98106.50
2018-09-19T07:31:05.588Z,98106.08
2018-09-19T07:31:37.140Z,98108.66
2018-09-19T07:32:08.745Z,98111.26
2018-09-19T07:32:40.338Z,98110.42
2018-09-19T07:33:11.933Z,98103.61
2018-09-19T07:33:43.548Z,98113.42
2018-09-19T07:34:15.140Z,98103.73
2018-09-19T07:34:46.744Z,98110.98
2018-09-19T07:35:18.336Z,98106.73
2018-09-19T07:35:49.945Z,98103.36
2018-09-19T07:36:21.548Z,98103.33
2018-09-19T07:36:53.136Z,98104.66
2018-09-19T07:37:24.716Z,98104.23
2018-09-19T07:37:56.322Z,98107.64
2018-09-19T07:38:27.916Z,98107.16
2018-09-19T07:38:59.514Z,98107.16
2018-09-19T07:39:31.122Z,98110.55
2018-09-19T07:40:02.808Z,98114.38
2018-09-19T07:40:34.371Z,98110.92
2018-09-19T07:41:05.970Z,98086.69
2018-09-19T07:41:37.578Z,98119.92
2018-09-19T07:42:09.193Z,98118.59
2018-09-19T07:42:40.788Z,98112.62
2018-09-19T07:43:12.385Z,98113.41
2018-09-19T07:43:43.972Z,98111.64
2018-09-19T07:44:15.568Z,98111.56
2018-09-19T07:44:47.155Z,98110.64
2018-09-19T07:45:18.773Z,98111.80
2018-09-19T07:45:50.397Z,98118.11
2018-09-19T07:46:22.021Z,98116.77
2018-09-19T07:46:53.623Z,98117.48
2018-09-19T07:47:25.205Z,98119.47
2018-09-19T07:47:56.808Z,98116.35
2018-09-19T07:48:28.400Z,98114.98
2018-09-19T07:48:59.988Z,98119.47
2018-09-19T07:49:31.570Z,98122.37
2018-09-19T07:50:03.189Z,98120.11
2018-09-19T07:50:34.784Z,98125.24
2018-09-19T07:51:06.372Z,98120.17
2018-09-19T07:51:37.960Z,98124.00
2018-09-19T07:52:09.548Z,98124.38
2018-09-19T07:52:41.139Z,98127.45
2018-09-19T07:53:12.728Z,98127.80
2018-09-19T07:53:44.323Z,98131.63
2018-09-19T07:54:15.907Z,98131.14
2018-09-19T07:54:47.593Z,98125.71
2018-09-19T07:55:19.183Z,98137.33
2018-09-19T07:55:50.785Z,98129.29
2018-09-19T07:56:22.363Z,98129.08
2018-09-19T07:56:53.966Z,98132.55
2018-09-19T07:57:25.575Z,98132.55
2018-09-19T07:57:57.164Z,98133.41
2018-09-19T07:58:28.753Z,98134.31
2018-09-19T07:59:00.371Z,98138.22
2018-09-19T07:59:31.981Z,98132.27
2018-09-19T08:00:03.614Z,98139.52
2018-09-19T08:00:35.210Z,98133.98
2018-09-19T08:01:06.920Z,98136.59
2018-09-19T08:01:38.474Z,98134.48
2018-09-19T08:02:10.078Z,98136.62
2018-09-19T08:02:41.669Z,98137.95
2018-09-19T08:03:13.276Z,98139.59
2018-09-19T08:03:44.891Z,98136.62
2018-09-19T08:04:16.502Z,98138.78
2018-09-19T08:04:48.097Z,98141.80
2018-09-19T08:05:19.736Z,98143.08
2018-09-19T08:05:51.335Z,98138.39
2018-09-19T08:06:22.928Z,98137.09
2018-09-19T08:06:54.530Z,98140.93
2018-09-19T08:07:26.133Z,98141.36
2018-09-19T08:07:57.739Z,98133.69
2018-09-19T08:08:29.336Z,98140.50
2018-09-19T08:09:00.950Z,98137.95
2018-09-19T08:09:32.556Z,98137.59
2018-09-19T08:10:04.166Z,98139.31
2018-09-19T08:10:35.780Z,98135.90
2018-09-19T08:11:07.371Z,98138.02
2018-09-19T08:11:38.954Z,98139.72
2018-09-19T08:12:10.554Z,98138.38
2018-09-19T08:12:42.162Z,98142.21
2018-09-19T08:13:13.798Z,98146.04
2018-09-19T08:13:45.402Z,98144.34
2018-09-19T08:14:17.008Z,98144.34
2018-09-19T08:14:48.616Z,98146.46
2018-09-19T08:15:20.234Z,98150.26
2018-09-19T08:15:51.855Z,98137.53
2018-09-19T08:16:23.463Z,98153.25
2018-09-19T08:16:55.119Z,98143.50
2018-09-19T08:17:26.676Z,98140.92
2018-09-19T08:17:58.267Z,98143.48
2018-09-19T08:18:29.860Z,98139.66
2018-09-19T08:19:01.463Z,98141.79
2018-09-19T08:19:33.069Z,98145.62
2018-09-19T08:20:04.671Z,98140.93
2018-09-19T08:20:36.302Z,98142.63
2018-09-19T08:21:07.914Z,98141.30
2018-09-19T08:21:39.504Z,98144.30
2018-09-19T08:22:11.096Z,98145.58
2018-09-19T08:22:42.727Z,98142.58
2018-09-19T08:23:14.304Z,98143.91
2018-09-19T08:23:45.897Z,98145.55
2018-09-19T08:24:17.491Z,98146.83
2018-09-19T08:24:49.080Z,98147.19
2018-09-19T08:25:20.701Z,98141.64
2018-09-19T08:25:52.306Z,98143.77
2018-09-19T08:26:23.910Z,98147.61
2018-09-19T08:26:55.515Z,98142.08
2018-09-19T08:27:27.115Z,98141.59
2018-09-19T08:27:58.700Z,98144.57
2018-09-19T08:28:30.279Z,98147.05
2018-09-19T08:29:01.863Z,98148.75
2018-09-19T08:29:33.438Z,98146.56
2018-09-19T08:30:05.037Z,98149.48
2018-09-19T08:30:36.657Z,98138.95
2018-09-19T08:31:08.258Z,98145.55
2018-09-19T08:31:39.874Z,98147.20
2018-09-19T08:32:11.479Z,98144.98
2018-09-19T08:32:43.080Z,98144.44
2018-09-19T08:33:14.669Z,98144.84
2018-09-19T08:33:46.255Z,98143.08
2018-09-19T08:34:17.854Z,98144.34
2018-09-19T08:34:49.457Z,98151.98
2018-09-19T08:35:21.085Z,98145.57
2018-09-19T08:35:52.699Z,98143.02
2018-09-19T08:36:24.298Z,98148.13
2018-09-19T08:36:55.892Z,98145.97
2018-09-19T08:37:27.483Z,98145.49
2018-09-19T08:37:59.066Z,98153.59
2018-09-19T08:38:30.665Z,98148.00
2018-09-19T08:39:02.256Z,98151.42
2018-09-19T08:39:33.843Z,98155.67
2018-09-19T08:40:05.452Z,98151.41
2018-09-19T08:40:37.093Z,98152.20
2018-09-19T08:41:08.688Z,98146.25
2018-09-19T08:41:40.273Z,98152.20
2018-09-19T08:42:11.879Z,98154.71
2018-09-19T08:42:43.489Z,98158.11
2018-09-19T08:43:15.094Z,98161.09
2018-09-19T08:43:46.684Z,98158.12
2018-09-19T08:44:18.275Z,98162.80
2018-09-19T08:44:49.860Z,98163.17
2018-09-19T08:45:21.462Z,98161.89
2018-09-19T08:45:53.079Z,98158.03
2018-09-19T08:46:24.689Z,98162.30
2018-09-19T08:46:56.294Z,98157.13
2018-09-19T08:47:27.896Z,98159.66
2018-09-19T08:47:59.504Z,98155.81
2018-09-19T08:48:31.094Z,98160.08
2018-09-19T08:49:02.689Z,98164.36
2018-09-19T08:49:34.295Z,98162.22
2018-09-19T08:50:05.903Z,98155.84
2018-09-19T08:50:37.566Z,98158.04
2018-09-19T08:51:09.119Z,98162.36
2018-09-19T08:51:40.709Z,98161.95
2018-09-19T08:52:12.302Z,98163.66
2018-09-19T08:52:43.890Z,98162.38
2018-09-19T08:53:15.502Z,98157.75
2018-09-19T08:53:47.131Z,98164.52
2018-09-19T08:54:18.740Z,98161.59
2018-09-19T08:54:50.350Z,98158.66
2018-09-19T08:55:21.954Z,98164.63
2018-09-19T08:55:53.602Z,98157.86
2018-09-19T08:56:25.202Z,98158.35
2018-09-19T08:56:56.851Z,98153.23
2018-09-19T08:57:28.432Z,98153.67
2018-09-19T08:58:00.062Z,98160.94
2018-09-19T08:58:31.669Z,98160.55
2018-09-19T08:59:03.269Z,98156.30
2018-09-19T08:59:34.850Z,98158.00
2018-09-19T09:00:06.430Z,98160.56
2018-09-19T09:00:38.044Z,98164.83
2018-09-19T09:01:09.645Z,98166.12
2018-09-19T09:01:41.232Z,98167.40
2018-09-19T09:02:12.836Z,98167.39
2018-09-19T09:02:44.429Z,98170.80
2018-09-19T09:03:16.014Z,98172.09
2018-09-19T09:03:47.590Z,98178.06
2018-09-19T09:04:19.175Z,98174.64
2018-09-19T09:04:50.782Z,98172.47
2018-09-19T09:05:22.399Z,98170.38
2018-09-19T09:05:54.011Z,98174.59
2018-09-19T09:06:25.600Z,98176.77
2018-09-19T09:06:57.188Z,98172.02
2018-09-19T09:07:28.782Z,98169.89
2018-09-19T09:08:00.369Z,98175.45
2018-09-19T09:08:31.972Z,98180.14
2018-09-19T09:09:03.580Z,98172.58
2018-09-19T09:09:35.176Z,98173.36
2018-09-19T09:10:06.760Z,98175.92
2018-09-19T09:10:38.349Z,98177.64
2018-09-19T09:11:09.940Z,98171.29